Time;durP1;ratioP1;P1;durP2;ratioP2;P2;SDS_P1;SDS_P2;PMS_P1;PMS_P2;Temp;Humidity;BMP_temperature;BMP_pressure;BME280_temperature;BME280_humidity;BME280_pressure;Samples;Min_cycle;Max_cycle;Signal;HPM_P1;HPM_P2
2023/06/17 00:00:23;;;;;;;24.88;11.95;;;;;;;;;;5045564;28;20069;-76
2023/06/17 00:02:49;;;;;;;23.13;12.27;;;;;;;;;;5031215;28;20127;-77
2023/06/17 00:05:16;;;;;;;23.40;13.10;;;;;;;;;;5050007;28;20063;-76
2023/06/17 00:07:42;;;;;;;18.58;12.00;;;;;;;;;;5050299;28;21644;-76
2023/06/17 00:10:08;;;;;;;19.42;13.05;;;;;;;;;;5047149;28;20041;-76
2023/06/17 00:12:36;;;;;;;23.15;13.57;;;;;;;;;;5046918;28;20036;-76
2023/06/17 00:15:04;;;;;;;22.73;13.00;;;;;;;;;;5047313;28;20083;-76
2023/06/17 00:17:33;;;;;;;21.83;13.05;;;;;;;;;;5011011;28;20500;-76
2023/06/17 00:20:08;;;;;;;23.70;13.05;;;;;;;;;;5047962;28;21155;-76
2023/06/17 00:22:35;;;;;;;22.77;14.02;;;;;;;;;;5049123;28;20071;-75
2023/06/17 00:25:02;;;;;;;26.70;13.98;;;;;;;;;;5050503;28;20048;-76
2023/06/17 00:27:29;;;;;;;20.48;13.75;;;;;;;;;;5049800;28;20051;-78
2023/06/17 00:29:59;;;;;;;22.33;14.27;;;;;;;;;;5050353;28;20614;-76
2023/06/17 00:32:25;;;;;;;23.75;13.77;;;;;;;;;;5031614;28;20082;-77
2023/06/17 00:34:51;;;;;;;16.90;13.15;;;;;;;;;;5048998;28;20190;-76
2023/06/17 00:37:17;;;;;;;20.90;13.00;;;;;;;;;;5050835;28;20044;-76
2023/06/17 00:39:44;;;;;;;23.67;13.02;;;;;;;;;;5047457;28;20488;-78
2023/06/17 00:42:11;;;;;;;20.08;13.40;;;;;;;;;;5025988;28;20131;-77
2023/06/17 00:44:39;;;;;;;21.15;13.15;;;;;;;;;;5026428;28;20100;-77
2023/06/17 00:47:06;;;;;;;18.98;12.60;;;;;;;;;;5030331;28;20151;-77
2023/06/17 00:49:36;;;;;;;21.02;13.93;;;;;;;;;;5024478;28;20107;-77
2023/06/17 00:52:09;;;;;;;26.25;14.05;;;;;;;;;;5042073;28;21675;-77
2023/06/17 00:54:40;;;;;;;22.00;14.13;;;;;;;;;;5044869;28;20444;-77
2023/06/17 00:57:13;;;;;;;22.45;14.23;;;;;;;;;;5043701;28;20040;-77
2023/06/17 00:59:39;;;;;;;24.03;13.73;;;;;;;;;;5042982;28;20147;-77
2023/06/17 01:02:09;;;;;;;28.60;14.07;;;;;;;;;;5027480;28;20149;-77
2023/06/17 01:04:35;;;;;;;25.73;13.82;;;;;;;;;;5047983;28;20048;-77
2023/06/17 01:07:16;;;;;;;24.25;13.50;;;;;;;;;;5027288;28;20468;-77
2023/06/17 01:09:46;;;;;;;26.10;14.40;;;;;;;;;;5046454;28;20150;-77
2023/06/17 01:12:13;;;;;;;23.33;14.77;;;;;;;;;;5027712;28;20040;-78
2023/06/17 01:14:40;;;;;;;20.80;15.23;;;;;;;;;;5043639;28;20044;-77
2023/06/17 01:17:10;;;;;;;21.65;14.50;;;;;;;;;;5042378;28;20129;-77
2023/06/17 01:19:36;;;;;;;22.63;14.32;;;;;;;;;;5028589;28;20041;-77
2023/06/17 01:22:06;;;;;;;23.70;15.25;;;;;;;;;;5045932;28;20036;-77
2023/06/17 01:24:33;;;;;;;28.02;15.55;;;;;;;;;;5023531;28;20525;-77
2023/06/17 01:27:02;;;;;;;22.35;15.73;;;;;;;;;;5046292;28;20040;-77
2023/06/17 01:29:32;;;;;;;22.92;16.08;;;;;;;;;;5041568;28;20070;-77
2023/06/17 01:31:59;;;;;;;25.67;15.52;;;;;;;;;;5042260;28;20130;-77
2023/06/17 01:34:46;;;;;;;29.88;16.48;;;;;;;;;;5029056;28;20155;-76
2023/06/17 01:37:12;;;;;;;23.45;16.65;;;;;;;;;;5017501;28;20052;-76
2023/06/17 01:39:40;;;;;;;26.33;15.40;;;;;;;;;;5047678;28;20062;-75
2023/06/17 01:42:12;;;;;;;25.10;16.25;;;;;;;;;;5043519;28;20048;-76
2023/06/17 01:44:39;;;;;;;32.95;18.38;;;;;;;;;;5045336;28;20052;-75
2023/06/17 01:47:09;;;;;;;24.48;15.95;;;;;;;;;;5027007;28;20132;-76
2023/06/17 01:49:35;;;;;;;31.55;17.83;;;;;;;;;;5045128;28;20120;-75
2023/06/17 01:52:01;;;;;;;32.60;16.92;;;;;;;;;;5025980;28;20051;-76
2023/06/17 01:54:27;;;;;;;32.45;17.33;;;;;;;;;;5026824;28;20127;-76
2023/06/17 01:56:54;;;;;;;25.65;16.80;;;;;;;;;;5042325;28;20162;-75
2023/06/17 01:59:20;;;;;;;33.67;18.13;;;;;;;;;;5022876;28;20063;-75
2023/06/17 02:01:46;;;;;;;27.70;18.40;;;;;;;;;;5023069;28;20569;-75
2023/06/17 02:04:12;;;;;;;25.45;19.92;;;;;;;;;;5045729;28;20047;-75
2023/06/17 02:06:39;;;;;;;31.80;20.67;;;;;;;;;;5045809;28;20036;-76
2023/06/17 02:09:06;;;;;;;35.80;19.75;;;;;;;;;;5045521;28;20057;-76
2023/06/17 02:11:32;;;;;;;31.77;20.92;;;;;;;;;;5030465;28;20131;-76
2023/06/17 02:13:58;;;;;;;28.48;19.90;;;;;;;;;;5042970;28;21051;-75
2023/06/17 02:16:25;;;;;;;29.08;20.42;;;;;;;;;;5038979;28;20118;-76
2023/06/17 02:18:54;;;;;;;30.55;20.10;;;;;;;;;;5043661;28;20056;-75
2023/06/17 02:21:20;;;;;;;30.23;21.05;;;;;;;;;;5045044;28;20056;-76
2023/06/17 02:23:48;;;;;;;35.00;21.75;;;;;;;;;;5031931;28;20048;-75
2023/06/17 02:26:17;;;;;;;30.60;20.25;;;;;;;;;;5047550;28;20096;-75
2023/06/17 02:28:43;;;;;;;33.38;20.52;;;;;;;;;;5049446;28;20040;-75
2023/06/17 02:31:10;;;;;;;34.78;20.20;;;;;;;;;;5043010;28;20128;-75
2023/06/17 02:33:36;;;;;;;28.50;20.05;;;;;;;;;;5030553;28;20132;-76
2023/06/17 02:36:02;;;;;;;28.13;18.88;;;;;;;;;;5048483;28;20489;-76
2023/06/17 02:38:28;;;;;;;29.85;19.50;;;;;;;;;;5046166;28;20046;-76
2023/06/17 02:40:55;;;;;;;31.52;18.92;;;;;;;;;;5045968;28;20048;-76
2023/06/17 02:43:21;;;;;;;26.67;17.83;;;;;;;;;;5042373;28;20052;-76
2023/06/17 02:45:47;;;;;;;25.35;16.73;;;;;;;;;;5044380;28;21707;-76
2023/06/17 02:48:13;;;;;;;26.88;17.98;;;;;;;;;;5047496;28;20072;-76
2023/06/17 02:50:40;;;;;;;29.08;17.05;;;;;;;;;;5047423;28;20037;-76
2023/06/17 02:53:07;;;;;;;27.77;17.70;;;;;;;;;;5046097;28;20559;-76
2023/06/17 02:55:33;;;;;;;34.05;17.48;;;;;;;;;;5048345;28;20749;-75
2023/06/17 02:58:00;;;;;;;25.27;16.48;;;;;;;;;;5035140;28;20154;-76
2023/06/17 03:00:27;;;;;;;22.42;16.00;;;;;;;;;;5027594;28;20143;-76
2023/06/17 03:02:53;;;;;;;28.25;16.02;;;;;;;;;;5048796;28;20049;-76
2023/06/17 03:05:19;;;;;;;23.83;15.18;;;;;;;;;;5031468;28;20109;-75
2023/06/17 03:07:46;;;;;;;29.38;17.02;;;;;;;;;;5047239;28;20061;-76
2023/06/17 03:10:12;;;;;;;29.65;16.90;;;;;;;;;;5026510;28;20093;-75
2023/06/17 03:12:38;;;;;;;25.85;16.88;;;;;;;;;;5038644;28;20040;-75
2023/06/17 03:15:05;;;;;;;29.38;18.63;;;;;;;;;;5039464;28;20049;-76
2023/06/17 03:17:31;;;;;;;27.50;19.63;;;;;;;;;;5043014;28;20048;-76
2023/06/17 03:19:59;;;;;;;30.38;19.50;;;;;;;;;;5024963;28;20067;-76
2023/06/17 03:22:25;;;;;;;30.35;19.95;;;;;;;;;;5048415;28;20083;-76
2023/06/17 03:24:51;;;;;;;27.70;18.10;;;;;;;;;;5029407;28;20511;-76
2023/06/17 03:27:17;;;;;;;29.23;18.42;;;;;;;;;;5046916;28;20527;-76
2023/06/17 03:29:43;;;;;;;24.75;18.13;;;;;;;;;;5023148;28;21537;-75
2023/06/17 03:32:09;;;;;;;26.63;17.17;;;;;;;;;;5021852;28;20135;-77
2023/06/17 03:34:36;;;;;;;23.55;17.48;;;;;;;;;;5026463;28;20050;-77
2023/06/17 03:37:02;;;;;;;31.10;20.13;;;;;;;;;;5043494;28;20412;-77
2023/06/17 03:39:28;;;;;;;23.60;18.30;;;;;;;;;;5058003;28;20040;-78
2023/06/17 03:41:54;;;;;;;29.00;19.25;;;;;;;;;;5042072;28;20040;-77
2023/06/17 03:44:20;;;;;;;28.02;19.42;;;;;;;;;;5046274;28;20053;-77
2023/06/17 03:46:47;;;;;;;31.73;20.65;;;;;;;;;;5044284;28;20033;-77
2023/06/17 03:49:13;;;;;;;31.10;21.20;;;;;;;;;;5023371;28;20041;-76
2023/06/17 03:51:39;;;;;;;36.10;23.45;;;;;;;;;;5039872;28;20045;-76
2023/06/17 03:54:05;;;;;;;28.23;20.63;;;;;;;;;;5043793;28;20253;-76
2023/06/17 03:56:31;;;;;;;32.65;21.50;;;;;;;;;;5044316;28;20039;-76
2023/06/17 03:58:57;;;;;;;31.90;22.15;;;;;;;;;;5043415;28;22184;-76
2023/06/17 04:01:23;;;;;;;34.08;22.38;;;;;;;;;;5041014;28;20044;-76
2023/06/17 04:03:50;;;;;;;32.03;22.10;;;;;;;;;;5044476;28;20052;-76
2023/06/17 04:06:16;;;;;;;34.45;22.33;;;;;;;;;;5043467;28;20088;-76
2023/06/17 04:08:43;;;;;;;30.48;21.95;;;;;;;;;;5041125;28;20045;-76
2023/06/17 04:11:10;;;;;;;35.20;22.42;;;;;;;;;;5041886;28;20143;-76
2023/06/17 04:13:36;;;;;;;26.00;21.25;;;;;;;;;;5042626;28;20048;-77
2023/06/17 04:16:02;;;;;;;33.20;22.25;;;;;;;;;;5042114;28;20496;-76
2023/06/17 04:18:28;;;;;;;34.75;22.13;;;;;;;;;;5042769;28;20100;-76
2023/06/17 04:20:56;;;;;;;33.13;23.05;;;;;;;;;;5026651;28;20058;-76
2023/06/17 04:23:25;;;;;;;35.30;22.30;;;;;;;;;;5044767;28;20749;-76
2023/06/17 04:25:51;;;;;;;28.13;20.23;;;;;;;;;;5043872;28;20044;-76
2023/06/17 04:28:18;;;;;;;35.10;20.45;;;;;;;;;;5044860;28;20071;-76
2023/06/17 04:30:45;;;;;;;35.53;20.92;;;;;;;;;;5045266;28;20741;-76
2023/06/17 04:33:14;;;;;;;32.03;20.10;;;;;;;;;;5045358;28;20072;-76
2023/06/17 04:35:44;;;;;;;32.25;20.67;;;;;;;;;;5044478;28;20405;-75
2023/06/17 04:38:11;;;;;;;31.30;21.65;;;;;;;;;;5043562;28;20048;-76
2023/06/17 04:40:37;;;;;;;29.13;22.35;;;;;;;;;;5056471;28;20609;-76
2023/06/17 04:43:04;;;;;;;38.15;24.73;;;;;;;;;;5042623;28;20053;-76
2023/06/17 04:45:31;;;;;;;35.92;24.85;;;;;;;;;;5043803;28;20393;-76
2023/06/17 04:47:57;;;;;;;35.70;25.73;;;;;;;;;;5047187;28;20641;-76
2023/06/17 04:50:24;;;;;;;38.70;26.92;;;;;;;;;;5040875;28;20132;-76
2023/06/17 04:52:53;;;;;;;34.83;25.10;;;;;;;;;;5041327;28;20044;-76
2023/06/17 04:55:21;;;;;;;32.92;24.20;;;;;;;;;;5044375;28;20036;-76
2023/06/17 04:57:47;;;;;;;32.20;23.65;;;;;;;;;;5044089;28;20538;-76
2023/06/17 05:00:13;;;;;;;32.55;23.52;;;;;;;;;;5042509;28;20040;-76
2023/06/17 05:02:40;;;;;;;34.00;23.13;;;;;;;;;;5043451;28;20084;-75
2023/06/17 05:05:07;;;;;;;36.50;26.30;;;;;;;;;;5040418;28;20049;-75
2023/06/17 05:07:33;;;;;;;38.35;29.52;;;;;;;;;;5040336;28;20208;-75
2023/06/17 05:09:59;;;;;;;35.05;27.63;;;;;;;;;;5039363;28;20044;-75
2023/06/17 05:12:26;;;;;;;37.25;27.90;;;;;;;;;;5037801;28;20044;-75
2023/06/17 05:14:52;;;;;;;35.05;25.85;;;;;;;;;;5019060;28;20051;-75
2023/06/17 05:17:18;;;;;;;30.20;23.38;;;;;;;;;;5043436;28;20503;-75
2023/06/17 05:19:44;;;;;;;30.48;23.55;;;;;;;;;;5023336;28;20720;-75
2023/06/17 05:22:10;;;;;;;31.55;24.42;;;;;;;;;;5036556;28;20619;-75
2023/06/17 05:24:36;;;;;;;34.00;23.83;;;;;;;;;;5036172;28;20045;-75
2023/06/17 05:27:02;;;;;;;34.03;23.10;;;;;;;;;;5044880;28;20078;-75
2023/06/17 05:29:28;;;;;;;32.60;23.02;;;;;;;;;;5021567;28;20033;-75
2023/06/17 05:31:54;;;;;;;30.17;21.95;;;;;;;;;;5040515;28;20740;-75
2023/06/17 05:34:20;;;;;;;32.42;21.88;;;;;;;;;;5038695;28;20052;-75
2023/06/17 05:36:46;;;;;;;32.55;22.58;;;;;;;;;;5046753;28;20040;-75
2023/06/17 05:39:12;;;;;;;37.85;22.08;;;;;;;;;;5043629;28;20127;-75
2023/06/17 05:41:39;;;;;;;37.53;21.83;;;;;;;;;;5044681;28;20470;-75
2023/06/17 05:44:05;;;;;;;33.70;20.13;;;;;;;;;;5043495;28;20056;-75
2023/06/17 05:46:31;;;;;;;30.45;20.80;;;;;;;;;;5028853;28;20067;-75
2023/06/17 05:48:57;;;;;;;28.90;21.15;;;;;;;;;;5047957;28;20068;-75
2023/06/17 05:51:23;;;;;;;33.97;19.85;;;;;;;;;;5044587;28;20045;-76
2023/06/17 05:53:50;;;;;;;25.10;18.67;;;;;;;;;;5043640;28;20186;-75
2023/06/17 05:56:17;;;;;;;27.10;18.45;;;;;;;;;;5042674;28;20052;-76
2023/06/17 05:58:43;;;;;;;25.38;17.25;;;;;;;;;;5045330;28;20097;-76
2023/06/17 06:01:09;;;;;;;29.95;17.77;;;;;;;;;;5043206;28;20479;-75
2023/06/17 06:03:35;;;;;;;28.25;17.40;;;;;;;;;;5046552;28;20520;-75
2023/06/17 06:06:01;;;;;;;30.45;18.40;;;;;;;;;;5046486;28;20032;-76
2023/06/17 06:08:27;;;;;;;25.48;15.95;;;;;;;;;;5042750;28;20127;-76
2023/06/17 06:10:53;;;;;;;23.48;13.90;;;;;;;;;;5044795;28;20052;-76
2023/06/17 06:13:20;;;;;;;21.85;15.25;;;;;;;;;;5046663;28;20803;-76
2023/06/17 06:15:46;;;;;;;26.70;14.98;;;;;;;;;;5044585;28;20083;-76
2023/06/17 06:18:13;;;;;;;18.10;14.30;;;;;;;;;;5045505;28;20133;-76
2023/06/17 06:20:39;;;;;;;23.42;15.05;;;;;;;;;;5044564;28;20055;-76
2023/06/17 06:23:05;;;;;;;25.92;14.63;;;;;;;;;;5030012;28;20055;-75
2023/06/17 06:25:31;;;;;;;25.58;15.18;;;;;;;;;;5049707;28;20032;-76
2023/06/17 06:28:00;;;;;;;25.35;14.82;;;;;;;;;;5047410;28;20196;-75
2023/06/17 06:30:27;;;;;;;26.20;15.40;;;;;;;;;;5050630;28;20045;-76
2023/06/17 06:32:53;;;;;;;29.60;14.32;;;;;;;;;;5035207;28;20068;-76
2023/06/17 06:35:19;;;;;;;23.90;13.35;;;;;;;;;;5050588;28;20044;-75
2023/06/17 06:37:45;;;;;;;25.60;12.60;;;;;;;;;;5050876;28;20389;-75
2023/06/17 06:40:12;;;;;;;25.90;14.70;;;;;;;;;;5044289;28;20047;-75
2023/06/17 06:42:39;;;;;;;21.55;13.13;;;;;;;;;;5024243;28;20757;-75
2023/06/17 06:45:05;;;;;;;23.60;14.68;;;;;;;;;;5045950;28;20157;-74
2023/06/17 06:47:31;;;;;;;20.63;13.52;;;;;;;;;;5043241;28;20132;-75
2023/06/17 06:49:57;;;;;;;22.92;13.10;;;;;;;;;;5048836;28;20041;-75
2023/06/17 06:52:23;;;;;;;26.35;14.43;;;;;;;;;;5046331;28;20063;-75
2023/06/17 06:54:50;;;;;;;20.52;13.73;;;;;;;;;;5043580;28;20170;-75
2023/06/17 06:57:17;;;;;;;26.95;12.98;;;;;;;;;;5048428;28;20174;-75
2023/06/17 06:59:43;;;;;;;21.10;12.45;;;;;;;;;;5032555;28;20040;-75
2023/06/17 07:02:09;;;;;;;20.38;12.52;;;;;;;;;;5045238;28;20541;-76
2023/06/17 07:04:35;;;;;;;21.90;13.65;;;;;;;;;;5048578;28;20040;-75
2023/06/17 07:07:02;;;;;;;17.55;12.82;;;;;;;;;;5047929;28;20090;-75
2023/06/17 07:09:28;;;;;;;24.52;13.00;;;;;;;;;;5045116;28;20153;-75
2023/06/17 07:11:54;;;;;;;20.08;13.25;;;;;;;;;;5047571;28;20052;-75
2023/06/17 07:14:21;;;;;;;18.65;12.75;;;;;;;;;;5041980;28;20049;-75
2023/06/17 07:16:47;;;;;;;22.98;12.88;;;;;;;;;;5029455;28;20078;-75
2023/06/17 07:19:13;;;;;;;23.90;12.95;;;;;;;;;;5029749;28;20074;-75
2023/06/17 07:21:39;;;;;;;22.95;13.52;;;;;;;;;;5047943;28;21724;-75
2023/06/17 07:24:05;;;;;;;23.85;12.27;;;;;;;;;;5027765;28;20437;-75
2023/06/17 07:26:32;;;;;;;24.65;13.20;;;;;;;;;;5046320;28;20040;-75
2023/06/17 07:29:01;;;;;;;28.13;14.52;;;;;;;;;;5047421;28;20051;-75
2023/06/17 07:31:30;;;;;;;28.67;15.23;;;;;;;;;;5046828;28;20052;-75
2023/06/17 07:33:56;;;;;;;26.42;14.27;;;;;;;;;;5047783;28;20064;-75
2023/06/17 07:36:22;;;;;;;22.70;14.55;;;;;;;;;;5047195;28;20090;-75
2023/06/17 07:38:48;;;;;;;23.55;14.85;;;;;;;;;;5043927;28;20040;-75
2023/06/17 07:41:14;;;;;;;23.80;14.68;;;;;;;;;;5046104;28;20044;-75
2023/06/17 07:43:40;;;;;;;22.75;14.75;;;;;;;;;;5029236;28;20105;-75
2023/06/17 07:46:07;;;;;;;22.63;14.60;;;;;;;;;;5046937;28;20071;-75
2023/06/17 07:48:33;;;;;;;27.42;15.10;;;;;;;;;;5042571;28;20520;-75
2023/06/17 07:50:59;;;;;;;26.27;14.60;;;;;;;;;;5043494;28;20041;-75
2023/06/17 07:53:25;;;;;;;25.02;15.10;;;;;;;;;;5027654;28;20056;-76
2023/06/17 07:55:53;;;;;;;23.45;14.45;;;;;;;;;;5042478;28;20056;-76
2023/06/17 07:58:20;;;;;;;25.15;14.55;;;;;;;;;;5044968;28;21766;-75
2023/06/17 08:00:46;;;;;;;22.92;13.95;;;;;;;;;;5020786;28;20048;-76
2023/06/17 08:03:13;;;;;;;25.25;14.52;;;;;;;;;;5043766;28;20048;-76
2023/06/17 08:05:39;;;;;;;22.05;14.50;;;;;;;;;;5046205;28;20531;-75
2023/06/17 08:08:05;;;;;;;20.88;14.15;;;;;;;;;;5047160;28;20445;-78
2023/06/17 08:10:32;;;;;;;25.58;13.95;;;;;;;;;;5026065;28;20033;-77
2023/06/17 08:12:58;;;;;;;23.48;13.05;;;;;;;;;;5046249;28;20131;-78
2023/06/17 08:15:24;;;;;;;21.98;13.18;;;;;;;;;;5031127;28;20045;-77
2023/06/17 08:17:52;;;;;;;25.85;13.88;;;;;;;;;;5029054;28;20427;-75
2023/06/17 08:20:18;;;;;;;19.67;12.80;;;;;;;;;;5044043;28;20048;-76
2023/06/17 08:22:44;;;;;;;21.77;12.63;;;;;;;;;;5004469;28;20082;-75
2023/06/17 08:25:11;;;;;;;24.65;13.57;;;;;;;;;;5047133;28;20519;-76
2023/06/17 08:27:42;;;;;;;22.23;13.18;;;;;;;;;;5047419;28;20787;-75
2023/06/17 08:30:08;;;;;;;20.88;12.50;;;;;;;;;;5040840;28;22399;-75
2023/06/17 08:32:34;;;;;;;23.77;13.80;;;;;;;;;;5024493;28;20116;-75
2023/06/17 08:35:06;;;;;;;19.88;12.77;;;;;;;;;;5025114;28;20048;-76
2023/06/17 08:37:32;;;;;;;20.45;12.45;;;;;;;;;;5038206;28;20052;-76
2023/06/17 08:39:58;;;;;;;20.65;12.95;;;;;;;;;;5044162;28;20048;-75
2023/06/17 08:42:26;;;;;;;17.38;11.52;;;;;;;;;;5049068;28;20811;-76
2023/06/17 08:44:53;;;;;;;24.25;13.07;;;;;;;;;;5024628;28;20584;-76
2023/06/17 08:47:19;;;;;;;16.25;10.98;;;;;;;;;;5044623;28;20056;-75
2023/06/17 08:49:45;;;;;;;18.40;12.18;;;;;;;;;;5042615;28;20047;-75
2023/06/17 08:52:13;;;;;;;17.52;11.00;;;;;;;;;;5046229;28;20036;-75
2023/06/17 08:54:43;;;;;;;22.75;12.23;;;;;;;;;;5047023;28;20048;-76
2023/06/17 08:57:12;;;;;;;17.13;12.02;;;;;;;;;;5046480;28;21187;-75
2023/06/17 08:59:38;;;;;;;20.02;11.60;;;;;;;;;;5048503;28;21801;-75
2023/06/17 09:02:05;;;;;;;20.77;12.60;;;;;;;;;;5045846;28;20037;-75
2023/06/17 09:04:31;;;;;;;20.05;11.43;;;;;;;;;;5048952;28;20569;-75
2023/06/17 09:06:58;;;;;;;16.90;11.90;;;;;;;;;;5029719;28;20063;-76
2023/06/17 09:09:24;;;;;;;21.20;10.85;;;;;;;;;;5041656;28;20036;-75
2023/06/17 09:11:51;;;;;;;23.40;12.18;;;;;;;;;;5024459;28;20041;-75
2023/06/17 09:14:18;;;;;;;19.00;11.40;;;;;;;;;;5047594;28;20083;-74
2023/06/17 09:16:45;;;;;;;19.13;10.95;;;;;;;;;;5051582;28;20040;-74
2023/06/17 09:19:14;;;;;;;30.42;12.57;;;;;;;;;;5048552;28;20117;-73
2023/06/17 09:21:41;;;;;;;23.98;13.10;;;;;;;;;;5028438;28;20131;-75
2023/06/17 09:24:11;;;;;;;21.30;13.25;;;;;;;;;;5039847;28;20055;-74
2023/06/17 09:26:41;;;;;;;18.52;12.55;;;;;;;;;;5040588;28;20613;-74
2023/06/17 09:29:09;;;;;;;18.02;12.60;;;;;;;;;;5040357;28;20173;-75
2023/06/17 09:31:48;;;;;;;17.25;12.75;;;;;;;;;;5042898;28;20449;-75
2023/06/17 09:34:14;;;;;;;19.15;12.07;;;;;;;;;;5044079;28;20059;-74
2023/06/17 09:36:40;;;;;;;25.45;12.80;;;;;;;;;;5040384;28;20052;-74
2023/06/17 09:39:07;;;;;;;21.85;12.60;;;;;;;;;;5042059;28;20044;-74
2023/06/17 09:41:37;;;;;;;20.05;13.02;;;;;;;;;;5045891;28;20048;-74
2023/06/17 09:44:03;;;;;;;25.50;13.52;;;;;;;;;;5037774;28;20092;-75
2023/06/17 09:46:29;;;;;;;21.98;13.00;;;;;;;;;;5055450;28;20083;-74
2023/06/17 09:48:58;;;;;;;20.50;12.98;;;;;;;;;;5033444;28;20036;-74
2023/06/17 09:51:25;;;;;;;22.95;12.48;;;;;;;;;;5050826;28;20434;-75
2023/06/17 09:53:51;;;;;;;19.45;11.60;;;;;;;;;;5051835;28;20052;-74
2023/06/17 09:56:19;;;;;;;20.10;11.25;;;;;;;;;;5048148;28;20467;-73
2023/06/17 09:58:45;;;;;;;18.55;12.13;;;;;;;;;;5045779;28;20782;-74
2023/06/17 10:01:13;;;;;;;20.15;11.98;;;;;;;;;;5045922;28;20040;-74
2023/06/17 10:03:39;;;;;;;22.55;13.15;;;;;;;;;;5024007;28;20040;-73
2023/06/17 10:06:13;;;;;;;22.77;12.07;;;;;;;;;;5048332;28;20132;-74
2023/06/17 10:08:41;;;;;;;18.92;12.57;;;;;;;;;;5050395;28;20044;-74
2023/06/17 10:11:07;;;;;;;20.52;13.13;;;;;;;;;;5049746;28;21756;-74
2023/06/17 10:13:36;;;;;;;18.88;12.48;;;;;;;;;;5048983;28;20055;-74
2023/06/17 10:16:04;;;;;;;21.60;11.75;;;;;;;;;;5036631;28;20396;-74
2023/06/17 10:18:31;;;;;;;16.30;12.07;;;;;;;;;;5052190;28;20666;-75
2023/06/17 10:20:58;;;;;;;17.92;11.73;;;;;;;;;;5053163;28;20072;-74
2023/06/17 10:23:24;;;;;;;20.20;11.65;;;;;;;;;;5052042;28;20210;-74
2023/06/17 10:25:53;;;;;;;19.23;12.15;;;;;;;;;;5052571;28;20055;-74
2023/06/17 10:28:19;;;;;;;23.70;11.55;;;;;;;;;;5054728;28;20036;-75
2023/06/17 10:30:46;;;;;;;20.77;11.65;;;;;;;;;;5051544;28;20123;-74
2023/06/17 10:33:12;;;;;;;20.90;11.98;;;;;;;;;;5052023;28;20055;-74
2023/06/17 10:35:42;;;;;;;21.75;12.18;;;;;;;;;;5033066;28;20154;-74
2023/06/17 10:38:09;;;;;;;21.35;11.98;;;;;;;;;;5053141;28;20185;-74
2023/06/17 10:40:39;;;;;;;24.05;12.10;;;;;;;;;;5052250;28;20076;-75
2023/06/17 10:43:06;;;;;;;18.20;11.20;;;;;;;;;;5052758;28;20106;-73
2023/06/17 10:45:33;;;;;;;22.70;11.63;;;;;;;;;;5035586;28;20067;-73
2023/06/17 10:48:18;;;;;;;19.42;11.10;;;;;;;;;;5050959;28;20756;-74
2023/06/17 10:50:46;;;;;;;20.75;11.30;;;;;;;;;;5039143;28;20052;-74
2023/06/17 10:53:16;;;;;;;22.35;11.77;;;;;;;;;;5042248;28;20052;-74
2023/06/17 10:55:43;;;;;;;22.33;11.95;;;;;;;;;;5042906;28;20056;-75
2023/06/17 10:58:10;;;;;;;22.33;11.02;;;;;;;;;;5045931;28;20668;-74
2023/06/17 11:00:36;;;;;;;16.38;10.77;;;;;;;;;;5041456;28;20051;-75
2023/06/17 11:03:02;;;;;;;20.23;11.07;;;;;;;;;;5026704;28;20044;-74
2023/06/17 11:05:35;;;;;;;18.73;11.23;;;;;;;;;;5024101;28;20492;-74
2023/06/17 11:08:02;;;;;;;15.57;10.50;;;;;;;;;;5045051;28;20135;-75
2023/06/17 11:10:28;;;;;;;18.13;10.77;;;;;;;;;;5045030;28;20044;-74
2023/06/17 11:12:54;;;;;;;15.23;10.23;;;;;;;;;;5045203;28;20044;-75
2023/06/17 11:15:22;;;;;;;18.08;10.60;;;;;;;;;;5043547;28;20120;-74
2023/06/17 11:17:48;;;;;;;17.40;10.70;;;;;;;;;;5044358;28;20216;-74
2023/06/17 11:20:14;;;;;;;16.75;11.02;;;;;;;;;;5041951;28;20044;-74
2023/06/17 11:22:40;;;;;;;18.35;11.02;;;;;;;;;;5026351;28;20049;-74
2023/06/17 11:25:07;;;;;;;17.15;9.93;;;;;;;;;;5046605;28;20049;-75
2023/06/17 11:27:33;;;;;;;20.67;10.57;;;;;;;;;;5023833;28;20074;-75
2023/06/17 11:30:00;;;;;;;16.25;9.80;;;;;;;;;;5044882;28;20048;-75
2023/06/17 11:32:27;;;;;;;19.45;8.80;;;;;;;;;;5045590;28;20044;-76
2023/06/17 11:34:53;;;;;;;16.60;9.35;;;;;;;;;;5042837;28;20048;-75
2023/06/17 11:37:19;;;;;;;15.57;8.98;;;;;;;;;;5030085;28;21145;-79
2023/06/17 11:39:45;;;;;;;17.92;9.10;;;;;;;;;;5025100;28;20051;-76
2023/06/17 11:42:11;;;;;;;13.70;8.82;;;;;;;;;;5029866;28;20060;-76
2023/06/17 11:44:38;;;;;;;17.30;10.10;;;;;;;;;;5049894;28;20061;-75
2023/06/17 11:47:08;;;;;;;17.02;8.52;;;;;;;;;;5047191;28;20075;-76
2023/06/17 11:49:35;;;;;;;14.65;9.25;;;;;;;;;;5050590;28;20052;-78
2023/06/17 11:52:05;;;;;;;17.05;9.45;;;;;;;;;;5050073;28;20123;-82
2023/06/17 11:54:31;;;;;;;12.52;9.75;;;;;;;;;;5045860;28;21100;-79
2023/06/17 11:56:58;;;;;;;15.02;9.50;;;;;;;;;;5030785;28;20058;-79
2023/06/17 11:59:24;;;;;;;18.13;9.93;;;25.00;99.90;;;;;;5047002;28;20048;-81
2023/06/17 12:01:51;;;;;;;17.58;9.48;;;;;;;;;;5051112;28;20598;-78
2023/06/17 12:04:17;;;;;;;18.50;10.15;;;;;;;;;;5050694;28;20060;-78
2023/06/17 12:06:44;;;;;;;19.02;9.73;;;;;;;;;;5051784;28;20048;-78
2023/06/17 12:09:11;;;;;;;16.60;10.32;;;;;;;;;;5044893;28;20044;-78
2023/06/17 12:11:41;;;;;;;19.05;9.93;;;;;;;;;;5045995;28;20170;-78
2023/06/17 12:14:08;;;;;;;15.48;10.05;;;;;;;;;;5028498;28;20048;-78
2023/06/17 12:16:35;;;;;;;15.77;9.20;;;;;;;;;;5045851;28;20044;-78
2023/06/17 12:19:03;;;;;;;17.42;8.73;;;;;;;;;;5047183;28;22091;-78
2023/06/17 12:21:29;;;;;;;19.63;9.95;;;;;;;;;;5044620;28;20048;-78
2023/06/17 12:23:55;;;;;;;19.13;10.18;;;;;;;;;;5026289;28;20056;-78
2023/06/17 12:26:25;;;;;;;19.73;9.73;;;;;;;;;;5043761;28;20070;-81
2023/06/17 12:28:51;;;;;;;17.27;10.15;;;;;;;;;;5044762;28;20139;-78
2023/06/17 12:31:17;;;;;;;17.35;9.48;;;;;;;;;;5043968;28;20041;-79
2023/06/17 12:33:44;;;;;;;17.98;9.88;;;;;;;;;;5014694;28;20106;-77
2023/06/17 12:36:10;;;;;;;15.43;9.10;;;;;;;;;;5048224;28;20064;-77
2023/06/17 12:38:37;;;;;;;17.17;9.25;;;;;;;;;;5050878;28;20079;-77
2023/06/17 12:41:04;;;;;;;16.25;10.15;;;;;;;;;;5050899;28;20438;-77
2023/06/17 12:43:30;;;;;;;19.15;10.18;;;;;;;;;;5050042;28;20053;-78
2023/06/17 12:45:58;;;;;;;15.63;8.73;;;;;;;;;;5029911;28;20708;-77
2023/06/17 12:48:25;;;;;;;19.60;9.68;;;;;;;;;;5049757;28;20262;-77
2023/06/17 12:50:51;;;;;;;15.88;9.38;;;;;;;;;;5050213;28;20087;-77
2023/06/17 12:53:17;;;;;;;19.27;9.18;;;;;;;;;;5049945;28;20054;-78
2023/06/17 12:55:44;;;;;;;18.63;9.68;;;;;;;;;;5050675;28;20381;-77
2023/06/17 12:58:10;;;;;;;14.55;8.93;;;;;;;;;;5050387;28;20076;-77
2023/06/17 13:00:36;;;;;;;13.93;8.93;;;;;;;;;;5050138;28;20087;-77
2023/06/17 13:03:03;;;;;;;18.38;9.80;;;;;;;;;;5049180;28;20554;-77
2023/06/17 13:05:29;;;;;;;15.80;8.98;;;;;;;;;;5031071;28;20048;-78
2023/06/17 13:07:55;;;;;;;15.82;9.40;;;;;;;;;;5050402;28;20059;-77
2023/06/17 13:10:21;;;;;;;13.18;9.10;;;;;;;;;;5049247;28;20043;-77
2023/06/17 13:12:47;;;;;;;18.20;10.52;;;;;;;;;;5033810;28;20041;-77
2023/06/17 13:15:14;;;;;;;15.90;10.18;;;;;;;;;;5050214;28;20052;-77
2023/06/17 13:17:41;;;;;;;15.20;9.85;;;;;;;;;;5052056;28;20381;-77
2023/06/17 13:20:07;;;;;;;15.02;9.57;;;;;;;;;;5049761;28;20074;-77
2023/06/17 13:22:34;;;;;;;14.98;10.32;;;;;;;;;;5052115;28;20055;-77
2023/06/17 13:25:00;;;;;;;20.05;10.73;;;;;;;;;;5050412;28;20049;-78
2023/06/17 13:27:27;;;;;;;18.75;10.27;;;;;;;;;;5050188;28;20051;-77
2023/06/17 13:29:53;;;;;;;21.33;10.45;;;;;;;;;;5033515;28;20401;-77
2023/06/17 13:32:20;;;;;;;16.33;9.73;;;;;;;;;;5052473;28;20431;-77
2023/06/17 13:34:46;;;;;;;19.35;11.57;;;;;;;;;;5049215;28;20040;-77
2023/06/17 13:37:12;;;;;;;20.30;10.98;;;;;;;;;;5050061;28;20051;-78
2023/06/17 13:39:40;;;;;;;17.08;10.38;;;;;;;;;;5050651;28;20040;-77
2023/06/17 13:42:09;;;;;;;20.38;10.23;;;;;;;;;;5050757;28;20412;-76
2023/06/17 13:44:36;;;;;;;19.48;10.27;;;;;;;;;;5049704;28;20060;-78
2023/06/17 13:47:03;;;;;;;12.85;9.82;;;;;;;;;;5049214;28;22034;-76
2023/06/17 13:49:29;;;;;;;15.60;10.02;;;;;;;;;;5050294;28;20116;-77
2023/06/17 13:51:55;;;;;;;17.35;9.18;;;;;;;;;;5033426;28;20048;-78
2023/06/17 13:54:22;;;;;;;17.23;10.10;;;;;;;;;;5034004;28;20052;-77
2023/06/17 13:56:48;;;;;;;21.05;10.18;;;;;;;;;;5050952;28;20131;-77
2023/06/17 13:59:15;;;;;;;15.20;10.13;;;;;;;;;;5054269;28;20071;-77
2023/06/17 14:01:41;;;;;;;14.90;9.07;;;;;;;;;;5052243;28;20045;-77
2023/06/17 14:04:07;;;;;;;13.27;9.45;;;;;;;;;;5050606;28;20644;-79
2023/06/17 14:06:34;;;;;;;13.70;9.50;;;;;;;;;;5045486;28;20265;-79
2023/06/17 14:09:04;;;;;;;15.60;9.63;;;;;;;;;;5049824;28;20119;-78
2023/06/17 14:11:31;;;;;;;11.65;8.85;;;;;;;;;;5048021;28;20044;-77
2023/06/17 14:13:57;;;;;;;19.13;10.15;;;;;;;;;;5033016;28;20138;-80
2023/06/17 14:16:23;;;;;;;18.60;10.07;;;;;;;;;;5054914;28;20040;-80